Time;durP1;ratioP1;P1;durP2;ratioP2;P2;SDS_P1;SDS_P2;PMS_P1;PMS_P2;Temp;Humidity;BMP_temperature;BMP_pressure;BME280_temperature;BME280_humidity;BME280_pressure;Samples;Min_cycle;Max_cycle;Signal;HPM_P1;HPM_P2
2023/08/21 00:00:10;;;;;;;9.23;3.40;;;17.40;99.90;;;;;;5157290;27;20045;-75
2023/08/21 00:02:35;;;;;;;9.43;3.67;;;17.40;99.90;;;;;;5156942;27;20038;-75
2023/08/21 00:05:01;;;;;;;10.57;3.63;;;17.40;99.90;;;;;;5157172;27;20144;-75
2023/08/21 00:07:26;;;;;;;11.73;3.50;;;17.40;99.90;;;;;;5138585;27;20092;-75
2023/08/21 00:09:52;;;;;;;8.53;4.00;;;17.40;99.90;;;;;;5157058;27;20038;-75
2023/08/21 00:12:18;;;;;;;9.70;3.67;;;17.30;99.90;;;;;;5156719;27;20066;-75
2023/08/21 00:14:44;;;;;;;9.13;3.80;;;17.30;99.90;;;;;;5157012;27;20039;-75
2023/08/21 00:17:09;;;;;;;8.33;4.07;;;17.30;99.90;;;;;;5156919;27;20133;-75
2023/08/21 00:19:38;;;;;;;8.30;4.03;;;17.30;99.90;;;;;;5156650;27;20133;-75
2023/08/21 00:22:04;;;;;;;8.43;3.70;;;17.30;99.90;;;;;;5156753;27;20122;-75
2023/08/21 00:24:29;;;;;;;8.30;3.83;;;17.20;99.90;;;;;;5121038;27;20053;-75
2023/08/21 00:26:55;;;;;;;9.90;4.40;;;17.20;99.90;;;;;;5104390;27;20042;-75
2023/08/21 00:29:21;;;;;;;9.00;4.20;;;17.20;99.90;;;;;;5156295;27;20050;-76
2023/08/21 00:31:47;;;;;;;7.23;3.60;;;17.20;99.90;;;;;;5156648;27;20042;-75
2023/08/21 00:34:12;;;;;;;6.53;3.43;;;17.20;99.90;;;;;;5155591;27;20102;-75
2023/08/21 00:36:38;;;;;;;8.27;3.97;;;17.20;99.90;;;;;;5156635;27;20458;-75
2023/08/21 00:39:04;;;;;;;11.10;3.70;;;17.20;99.90;;;;;;5156516;27;20122;-75
2023/08/21 00:41:29;;;;;;;6.83;2.93;;;17.20;99.90;;;;;;5137790;27;20039;-75
2023/08/21 00:43:55;;;;;;;8.57;3.73;;;17.10;99.90;;;;;;5156415;27;20042;-75
2023/08/21 00:46:21;;;;;;;8.00;3.40;;;17.10;99.90;;;;;;5156169;27;20424;-75
2023/08/21 00:48:47;;;;;;;6.87;3.70;;;17.00;99.90;;;;;;5156333;27;20042;-75
2023/08/21 00:51:15;;;;;;;7.70;3.90;;;17.00;99.90;;;;;;5155993;27;20435;-76
2023/08/21 00:53:41;;;;;;;9.63;4.10;;;17.00;99.90;;;;;;5155973;27;20049;-75
2023/08/21 00:56:08;;;;;;;7.77;3.50;;;17.00;99.90;;;;;;5156217;27;20043;-75
2023/08/21 00:58:34;;;;;;;6.73;3.20;;;17.00;99.90;;;;;;5155916;27;20049;-75
2023/08/21 01:00:59;;;;;;;8.40;3.57;;;17.00;99.90;;;;;;5137891;27;20043;-75
2023/08/21 01:03:25;;;;;;;11.13;4.50;;;17.00;99.90;;;;;;5155823;27;20509;-75
2023/08/21 01:05:51;;;;;;;8.97;3.90;;;16.90;99.90;;;;;;5156241;27;20119;-75
2023/08/21 01:08:26;;;;;;;7.23;3.73;;;16.90;99.90;;;;;;5155909;27;20064;-75
2023/08/21 01:11:13;;;;;;;7.13;3.75;;;16.90;99.90;;;;;;5138037;27;20050;-75
2023/08/21 01:13:39;;;;;;;7.43;3.50;;;16.90;99.90;;;;;;5155534;27;20042;-75
2023/08/21 01:16:06;;;;;;;8.17;3.90;;;16.90;99.90;;;;;;5155755;27;20134;-75
2023/08/21 01:18:33;;;;;;;7.60;3.77;;;16.90;99.90;;;;;;5137236;27;20463;-75
2023/08/21 01:21:03;;;;;;;6.50;3.50;;;16.90;99.90;;;;;;5155605;27;20050;-75
2023/08/21 01:23:36;;;;;;;9.03;3.60;;;16.80;99.90;;;;;;5137049;27;20051;-75
2023/08/21 01:26:02;;;;;;;7.80;3.40;;;16.80;99.90;;;;;;5155664;27;20042;-75
2023/08/21 01:28:28;;;;;;;7.07;3.37;;;16.80;99.90;;;;;;5155325;27;20138;-75
2023/08/21 01:31:03;;;;;;;10.93;3.90;;;16.80;99.90;;;;;;5154844;27;20095;-75
2023/08/21 01:33:32;;;;;;;6.30;3.22;;;16.80;99.90;;;;;;5155235;27;20068;-75
2023/08/21 01:36:00;;;;;;;8.73;3.20;;;16.70;99.90;;;;;;5155409;27;20046;-75
2023/08/21 01:38:26;;;;;;;10.93;3.63;;;16.70;99.90;;;;;;5136970;27;20035;-75
2023/08/21 01:40:53;;;;;;;10.17;3.73;;;16.70;99.90;;;;;;5155244;27;20046;-75
2023/08/21 01:43:20;;;;;;;6.40;3.23;;;16.70;99.90;;;;;;5155495;27;20142;-75
2023/08/21 01:45:46;;;;;;;9.13;4.07;;;16.60;99.90;;;;;;5136595;27;20074;-75
2023/08/21 01:48:12;;;;;;;10.40;3.47;;;16.60;99.90;;;;;;5155148;27;20084;-75
2023/08/21 01:50:37;;;;;;;8.77;3.33;;;16.50;99.90;;;;;;5154904;27;20206;-75
2023/08/21 01:53:03;;;;;;;8.00;3.47;;;16.60;99.90;;;;;;5154724;27;20089;-75
2023/08/21 01:55:29;;;;;;;7.80;3.20;;;16.50;99.90;;;;;;5154814;27;20057;-75
2023/08/21 01:57:54;;;;;;;7.67;3.30;;;16.50;99.90;;;;;;5155033;27;20394;-75
2023/08/21 02:00:20;;;;;;;10.27;3.43;;;16.40;99.90;;;;;;5154630;27;20046;-75
2023/08/21 02:02:46;;;;;;;8.83;4.17;;;16.40;99.90;;;;;;5154706;27;20039;-75
2023/08/21 02:05:11;;;;;;;7.07;3.10;;;16.40;99.90;;;;;;5136462;27;20038;-75
2023/08/21 02:07:37;;;;;;;7.50;3.20;;;16.40;99.90;;;;;;5136459;27;20046;-75
2023/08/21 02:10:04;;;;;;;7.10;3.00;;;16.40;99.90;;;;;;5136653;27;20078;-75
2023/08/21 02:12:29;;;;;;;8.97;3.73;;;16.40;99.90;;;;;;5136107;27;20051;-75
2023/08/21 02:14:55;;;;;;;9.63;4.10;;;16.40;99.90;;;;;;5136396;27;20118;-75
2023/08/21 02:17:20;;;;;;;7.30;3.67;;;16.40;99.90;;;;;;5155231;27;20459;-75
2023/08/21 02:19:46;;;;;;;8.97;3.57;;;16.40;99.90;;;;;;5154526;27;20078;-75
2023/08/21 02:22:12;;;;;;;7.63;3.67;;;16.40;99.90;;;;;;5119104;27;20050;-76
2023/08/21 02:24:38;;;;;;;6.70;3.33;;;16.30;99.90;;;;;;5135979;27;20107;-75
2023/08/21 02:27:04;;;;;;;6.03;2.57;;;16.30;99.90;;;;;;5154564;27;20409;-75
2023/08/21 02:29:29;;;;;;;8.57;3.57;;;16.30;99.90;;;;;;5154416;27;20042;-75
2023/08/21 02:31:55;;;;;;;8.17;3.50;;;16.30;99.90;;;;;;5154643;27;20038;-75
2023/08/21 02:34:21;;;;;;;8.57;3.20;;;16.30;99.90;;;;;;5136260;27;20043;-75
2023/08/21 02:36:46;;;;;;;10.70;3.67;;;16.30;99.90;;;;;;5154396;27;20129;-75
2023/08/21 02:39:12;;;;;;;10.30;3.90;;;16.30;99.90;;;;;;5119129;27;20393;-75
2023/08/21 02:41:38;;;;;;;12.77;4.00;;;16.20;99.90;;;;;;5135780;27;20050;-76
2023/08/21 02:44:03;;;;;;;9.97;4.40;;;16.20;99.90;;;;;;5154547;27;20074;-75
2023/08/21 02:46:29;;;;;;;10.50;4.53;;;16.20;99.90;;;;;;5154513;27;20042;-75
2023/08/21 02:48:55;;;;;;;9.13;4.20;;;16.20;99.90;;;;;;5154171;27;20038;-75
2023/08/21 02:51:20;;;;;;;10.13;4.37;;;16.10;99.90;;;;;;5154227;27;20039;-75
2023/08/21 02:53:46;;;;;;;9.93;4.03;;;16.10;99.90;;;;;;5136028;27;20052;-75
2023/08/21 02:56:12;;;;;;;11.03;4.63;;;16.10;99.90;;;;;;5136256;27;20047;-75
2023/08/21 02:58:37;;;;;;;9.13;3.73;;;16.10;99.90;;;;;;5138660;27;20038;-75
2023/08/21 03:01:03;;;;;;;9.57;4.17;;;16.00;99.90;;;;;;5158565;27;20043;-75
2023/08/21 03:03:29;;;;;;;8.13;4.00;;;16.00;99.90;;;;;;5158505;27;20078;-76
2023/08/21 03:05:54;;;;;;;6.67;3.90;;;16.00;99.90;;;;;;5158064;27;20054;-75
2023/08/21 03:08:20;;;;;;;9.23;4.20;;;15.90;99.90;;;;;;5158074;27;20125;-76
2023/08/21 03:10:46;;;;;;;7.90;4.90;;;16.00;99.90;;;;;;5157887;27;20043;-76
2023/08/21 03:13:11;;;;;;;6.90;4.50;;;16.00;99.90;;;;;;5157997;27;20497;-76
2023/08/21 03:15:37;;;;;;;10.40;4.97;;;15.90;99.90;;;;;;5157520;27;20391;-76
2023/08/21 03:18:03;;;;;;;7.73;4.00;;;15.90;99.90;;;;;;5158303;27;20043;-76
2023/08/21 03:20:29;;;;;;;6.37;4.07;;;15.90;99.90;;;;;;5157997;27;20050;-75
2023/08/21 03:22:55;;;;;;;8.07;3.97;;;15.90;99.90;;;;;;5157143;27;20051;-75
2023/08/21 03:25:20;;;;;;;7.63;4.40;;;15.80;99.90;;;;;;5139710;27;20125;-76
2023/08/21 03:27:49;;;;;;;6.90;4.20;;;15.80;99.90;;;;;;5157579;27;20078;-76
2023/08/21 03:30:15;;;;;;;6.80;3.53;;;15.70;99.90;;;;;;5157968;27;20043;-75
2023/08/21 03:32:41;;;;;;;6.37;3.23;;;15.70;99.90;;;;;;5157698;27;20035;-76
2023/08/21 03:35:07;;;;;;;7.90;3.40;;;15.70;99.90;;;;;;5158119;27;20547;-75
2023/08/21 03:37:33;;;;;;;8.13;3.93;;;15.70;99.90;;;;;;5157750;27;20047;-76
2023/08/21 03:39:58;;;;;;;6.43;3.80;;;15.70;99.90;;;;;;5157407;27;20047;-75
2023/08/21 03:42:24;;;;;;;7.63;3.93;;;15.70;99.90;;;;;;5157581;27;20102;-75
2023/08/21 03:44:50;;;;;;;8.23;3.93;;;15.70;99.90;;;;;;5157319;27;20053;-76
2023/08/21 03:47:16;;;;;;;7.50;3.50;;;15.70;99.90;;;;;;5157694;27;20466;-76
2023/08/21 03:49:42;;;;;;;6.33;3.23;;;15.60;99.90;;;;;;5157028;27;20047;-76
2023/08/21 03:52:08;;;;;;;7.27;3.20;;;15.60;99.90;;;;;;5157444;27;20142;-76
2023/08/21 03:54:33;;;;;;;7.17;3.23;;;15.60;99.90;;;;;;5157435;27;20058;-76
2023/08/21 03:56:59;;;;;;;6.53;3.13;;;15.60;99.90;;;;;;5157111;27;20046;-76
2023/08/21 03:59:27;;;;;;;4.87;3.13;;;15.60;99.90;;;;;;5157317;27;20047;-76
2023/08/21 04:01:53;;;;;;;6.97;3.63;;;15.60;99.90;;;;;;5121709;27;20038;-75
2023/08/21 04:04:19;;;;;;;6.17;3.10;;;15.50;99.90;;;;;;5157144;27;20125;-76
2023/08/21 04:06:44;;;;;;;8.93;3.60;;;15.60;99.90;;;;;;5156903;27;20081;-76
2023/08/21 04:09:10;;;;;;;6.70;3.30;;;15.60;99.90;;;;;;5156996;27;20067;-76
2023/08/21 04:11:36;;;;;;;5.97;2.87;;;15.50;99.90;;;;;;5157027;27;20399;-76
2023/08/21 04:14:02;;;;;;;6.80;3.87;;;15.50;99.90;;;;;;5138502;27;20042;-75
2023/08/21 04:16:28;;;;;;;6.47;3.13;;;15.50;99.90;;;;;;5156846;27;20054;-75
2023/08/21 04:18:54;;;;;;;5.50;3.20;;;15.50;99.90;;;;;;5156660;27;20047;-75
2023/08/21 04:21:19;;;;;;;6.77;2.90;;;15.50;99.90;;;;;;5121270;27;20042;-75
2023/08/21 04:23:46;;;;;;;8.03;3.90;;;15.50;99.90;;;;;;5156483;27;20038;-76
2023/08/21 04:26:12;;;;;;;6.10;3.40;;;15.50;99.90;;;;;;5156701;27;20043;-75
2023/08/21 04:28:37;;;;;;;6.67;3.17;;;15.50;99.90;;;;;;5156766;27;20049;-76
2023/08/21 04:31:07;;;;;;;10.83;3.53;;;15.50;99.90;;;;;;5156480;27;20131;-75
2023/08/21 04:33:33;;;;;;;5.53;2.90;;;15.50;99.90;;;;;;5121320;27;20091;-76
2023/08/21 04:35:59;;;;;;;6.43;3.70;;;15.50;99.90;;;;;;5156397;27;20398;-75
2023/08/21 04:38:25;;;;;;;5.73;3.33;;;15.50;99.90;;;;;;5156618;27;20125;-75
2023/08/21 04:40:51;;;;;;;6.27;3.43;;;15.50;99.90;;;;;;5155952;27;20065;-75
2023/08/21 04:43:17;;;;;;;7.90;3.60;;;15.40;99.90;;;;;;5156993;27;20047;-75
2023/08/21 04:45:52;;;;;;;8.33;3.87;;;15.40;99.90;;;;;;5156490;27;20439;-76
2023/08/21 04:48:19;;;;;;;6.03;3.73;;;15.40;99.90;;;;;;5138196;27;20092;-76
2023/08/21 04:50:46;;;;;;;6.40;3.60;;;15.40;99.90;;;;;;5156409;27;20082;-76
2023/08/21 04:53:12;;;;;;;6.70;3.30;;;15.40;99.90;;;;;;5156733;27;20054;-75
2023/08/21 04:55:40;;;;;;;8.50;3.73;;;15.40;99.90;;;;;;5156419;27;20050;-76
2023/08/21 04:58:09;;;;;;;7.37;3.33;;;15.50;99.90;;;;;;5155949;27;20482;-75
2023/08/21 05:00:35;;;;;;;5.80;3.70;;;15.50;99.90;;;;;;5155621;27;20050;-76
2023/08/21 05:03:01;;;;;;;8.97;3.63;;;15.50;99.90;;;;;;5155851;27;20046;-75
2023/08/21 05:05:27;;;;;;;6.63;3.50;;;15.60;99.90;;;;;;5120649;27;20042;-75
2023/08/21 05:07:53;;;;;;;8.50;3.33;;;15.60;99.90;;;;;;5155764;27;20054;-75
2023/08/21 05:10:19;;;;;;;6.73;3.27;;;15.60;99.90;;;;;;5137703;27;20386;-75
2023/08/21 05:12:46;;;;;;;7.63;3.80;;;15.60;99.90;;;;;;5137672;27;20043;-75
2023/08/21 05:15:11;;;;;;;6.83;3.93;;;15.60;99.90;;;;;;5155583;27;20046;-75
2023/08/21 05:17:37;;;;;;;9.30;3.40;;;15.60;99.90;;;;;;5137533;27;20077;-75
2023/08/21 05:20:04;;;;;;;6.70;3.17;;;15.80;99.90;;;;;;5136816;27;20102;-75
2023/08/21 05:22:30;;;;;;;6.43;3.27;;;15.80;99.90;;;;;;5155631;27;20038;-75
2023/08/21 05:24:56;;;;;;;8.80;3.47;;;15.80;99.90;;;;;;5155395;27;20099;-75
2023/08/21 05:27:21;;;;;;;6.10;3.40;;;15.90;99.90;;;;;;5155595;27;20065;-75
2023/08/21 05:29:49;;;;;;;7.53;3.33;;;15.90;99.90;;;;;;5155570;27;20473;-75
2023/08/21 05:32:14;;;;;;;7.33;3.40;;;16.00;99.90;;;;;;5155369;27;20038;-75
2023/08/21 05:34:40;;;;;;;10.13;4.17;;;16.00;99.90;;;;;;5155564;27;20049;-76
2023/08/21 05:37:06;;;;;;;8.07;3.97;;;16.00;99.90;;;;;;5155240;27;20086;-75
2023/08/21 05:39:33;;;;;;;6.87;3.40;;;16.10;99.90;;;;;;5137172;27;20078;-75
2023/08/21 05:41:59;;;;;;;7.77;3.27;;;16.10;99.90;;;;;;5136540;27;20046;-75
2023/08/21 05:44:25;;;;;;;8.97;3.43;;;16.10;99.90;;;;;;5155227;27;20459;-75
2023/08/21 05:46:50;;;;;;;7.40;3.63;;;16.20;99.90;;;;;;5136993;27;20043;-75
2023/08/21 05:49:16;;;;;;;6.43;2.93;;;16.30;99.90;;;;;;5119263;27;20495;-75
2023/08/21 05:51:42;;;;;;;7.63;3.73;;;16.40;99.90;;;;;;5154980;27;20105;-74
2023/08/21 05:54:07;;;;;;;7.37;3.13;;;16.40;99.90;;;;;;5154668;27;20067;-75
2023/08/21 05:56:33;;;;;;;9.60;3.40;;;16.60;99.90;;;;;;5154691;27;20050;-75
2023/08/21 05:58:59;;;;;;;10.00;3.40;;;16.80;99.90;;;;;;5136360;27;20130;-75
2023/08/21 06:01:24;;;;;;;9.30;3.23;;;17.70;99.90;;;;;;5136247;27;20043;-75
2023/08/21 06:03:50;;;;;;;9.70;3.70;;;19.00;99.90;;;;;;5154664;27;20049;-76
2023/08/21 06:06:16;;;;;;;6.67;3.40;;;20.20;99.90;;;;;;5154285;27;20133;-76
2023/08/21 06:08:41;;;;;;;6.70;3.00;;;21.30;99.90;;;;;;5154943;27;20098;-75
2023/08/21 06:11:07;;;;;;;6.37;2.80;;;22.40;99.90;;;;;;5154370;27;20060;-76
2023/08/21 06:13:33;;;;;;;8.93;2.83;;;23.20;99.90;;;;;;5136523;27;20049;-76
2023/08/21 06:15:58;;;;;;;5.67;2.33;;;24.10;99.90;;;;;;5154614;27;20046;-76
2023/08/21 06:18:24;;;;;;;9.50;2.77;;;24.90;99.90;;;;;;5154975;27;20056;-74
2023/08/21 06:20:53;;;;;;;7.13;2.87;;;25.50;99.90;;;;;;5154731;27;20043;-76
2023/08/21 06:23:20;;;;;;;7.40;2.40;;;26.10;99.90;;;;;;5154462;27;20541;-76
2023/08/21 06:25:50;;;;;;;8.10;2.10;;;26.70;99.90;;;;;;5154766;27;20035;-76
2023/08/21 06:28:16;;;;;;;8.23;2.33;;;27.30;99.90;;;;;;5136029;27;20158;-74
2023/08/21 06:30:42;;;;;;;6.97;2.57;;;27.70;99.90;;;;;;5154752;27;20520;-77
2023/08/21 06:33:08;;;;;;;5.63;2.30;;;28.10;99.90;;;;;;5138656;27;20058;-77
2023/08/21 06:35:36;;;;;;;6.17;2.60;;;28.50;99.00;;;;;;5159047;27;20065;-79
2023/08/21 06:38:02;;;;;;;6.83;2.50;;;28.90;93.40;;;;;;5158792;27;20054;-78
2023/08/21 06:40:28;;;;;;;6.23;2.20;;;29.10;94.10;;;;;;5158861;27;20043;-78
2023/08/21 06:42:53;;;;;;;6.83;2.57;;;29.40;91.30;;;;;;5140669;27;20125;-77
2023/08/21 06:45:19;;;;;;;5.75;2.40;;;29.80;89.40;;;;;;5158559;27;20063;-79
2023/08/21 06:47:45;;;;;;;5.45;2.50;;;30.20;83.30;;;;;;5140219;27;20046;-79
2023/08/21 06:50:11;;;;;;;5.25;2.10;;;30.40;77.60;;;;;;5140042;27;20041;-80
2023/08/21 06:52:36;;;;;;;7.30;2.42;;;30.70;73.80;;;;;;5136684;27;20055;-79
2023/08/21 06:55:02;;;;;;;5.75;2.45;;;31.00;69.50;;;;;;5137772;27;20510;-79
2023/08/21 06:57:28;;;;;;;7.43;2.50;;;31.40;66.80;;;;;;5136686;27;20100;-79
2023/08/21 06:59:54;;;;;;;7.40;2.45;;;31.80;63.60;;;;;;5137747;27;20054;-79
2023/08/21 07:02:20;;;;;;;6.05;2.70;;;32.00;61.00;;;;;;5137444;27;20047;-72
2023/08/21 07:04:45;;;;;;;6.43;2.30;;;32.30;59.30;;;;;;5137931;27;20039;-71
2023/08/21 07:07:11;;;;;;;5.13;2.28;;;32.50;58.00;;;;;;5137558;27;20101;-72
2023/08/21 07:09:37;;;;;;;6.32;2.20;;;32.90;56.80;;;;;;5137687;27;20403;-72
2023/08/21 07:12:03;;;;;;;5.97;2.42;;;33.00;55.40;;;;;;5137906;27;20387;-72
2023/08/21 07:14:28;;;;;;;6.50;2.17;;;33.10;54.40;;;;;;5137571;27;20047;-71
2023/08/21 07:16:54;;;;;;;5.18;1.92;;;33.40;53.60;;;;;;5119655;27;20200;-71
2023/08/21 07:19:20;;;;;;;5.85;2.33;;;33.60;52.90;;;;;;5137213;27;20040;-71
2023/08/21 07:21:46;;;;;;;4.63;2.10;;;33.90;52.30;;;;;;5136141;27;20047;-72
2023/08/21 07:24:11;;;;;;;5.65;2.33;;;34.30;51.50;;;;;;5135826;27;20120;-72
2023/08/21 07:26:37;;;;;;;5.97;2.10;;;34.50;50.40;;;;;;5137030;27;20349;-75
2023/08/21 07:29:04;;;;;;;6.05;2.58;;;34.60;50.10;;;;;;5137165;27;20051;-75
2023/08/21 07:31:30;;;;;;;6.55;2.40;;;34.80;49.60;;;;;;5136367;27;20336;-75
2023/08/21 07:33:56;;;;;;;7.65;2.42;;;35.00;48.90;;;;;;5137167;27;20063;-68
2023/08/21 07:36:21;;;;;;;5.75;2.60;;;35.10;48.50;;;;;;5135813;27;20043;-69
2023/08/21 07:38:47;;;;;;;6.30;2.45;;;35.30;48.00;;;;;;5137113;27;20050;-69
2023/08/21 07:41:13;;;;;;;8.55;2.50;;;35.40;47.80;;;;;;5136742;27;20383;-77
2023/08/21 07:43:43;;;;;;;7.40;2.47;;;35.40;47.70;;;;;;5136423;27;20043;-69
2023/08/21 07:46:15;;;;;;;4.80;2.00;;;35.30;47.10;;;;;;5136663;27;20061;-70
2023/08/21 07:48:44;;;;;;;5.30;2.30;;;35.50;47.10;;;;;;5136897;27;20043;-72
2023/08/21 07:51:10;;;;;;;8.43;2.95;;;35.60;46.70;;;;;;5134991;27;20491;-74
2023/08/21 07:53:36;;;;;;;6.93;2.53;;;35.80;46.30;;;;;;5149320;27;20050;-75
2023/08/21 07:56:03;;;;;;;6.10;2.53;;;36.10;46.10;;;;;;5121796;27;20526;-71
2023/08/21 07:58:30;;;;;;;6.32;2.78;;;36.30;45.50;;;;;;5138870;27;20051;-76
2023/08/21 08:00:56;;;;;;;5.38;2.20;;;36.00;45.20;;;;;;5157459;27;20039;-76
2023/08/21 08:03:22;;;;;;;5.30;2.83;;;35.30;46.30;;;;;;5156643;27;20069;-71
2023/08/21 08:05:47;;;;;;;6.00;2.28;;;34.20;47.40;;;;;;5156796;27;20406;-77
2023/08/21 08:08:13;;;;;;;6.53;2.50;;;33.20;48.70;;;;;;5121013;27;20117;-82
2023/08/21 08:10:40;;;;;;;7.00;2.60;;;32.40;49.40;;;;;;5139018;27;20042;-79
2023/08/21 08:13:07;;;;;;;6.55;2.88;;;31.70;49.80;;;;;;5138696;27;20042;-78
2023/08/21 08:15:34;;;;;;;7.35;2.65;;;31.00;51.50;;;;;;5138421;27;20083;-80
2023/08/21 08:18:01;;;;;;;6.82;2.85;;;30.40;52.20;;;;;;5138713;27;20050;-76
2023/08/21 08:20:27;;;;;;;7.40;2.38;;;29.90;53.90;;;;;;5137783;27;20052;-78
2023/08/21 08:22:53;;;;;;;8.80;2.35;;;29.50;55.10;;;;;;5156674;27;20091;-73
2023/08/21 08:25:19;;;;;;;7.07;2.90;;;29.20;57.30;;;;;;5104176;27;20073;-73
2023/08/21 08:27:45;;;;;;;7.55;2.78;;;29.00;59.00;;;;;;5138141;27;20470;-72
2023/08/21 08:30:11;;;;;;;8.68;2.85;;;28.80;60.80;;;;;;5103980;27;20039;-70
2023/08/21 08:32:37;;;;;;;7.80;3.38;;;28.60;63.20;;;;;;5156542;27;20550;-70
2023/08/21 08:35:03;;;;;;;9.50;3.10;;;28.40;64.20;;;;;;5156428;27;20038;-70
2023/08/21 08:37:28;;;;;;;8.32;3.28;;;28.20;67.20;;;;;;5156179;27;20459;-71
2023/08/21 08:39:54;;;;;;;7.13;2.30;;;28.00;73.10;;;;;;5156057;27;20247;-70
2023/08/21 08:42:20;;;;;;;8.68;2.42;;;27.80;76.50;;;;;;5155911;27;20046;-70
2023/08/21 08:44:47;;;;;;;6.70;2.90;;;27.70;78.70;;;;;;5156367;27;20498;-71
2023/08/21 08:47:14;;;;;;;6.22;2.63;;;27.50;82.90;;;;;;5156039;27;20080;-70
2023/08/21 08:49:40;;;;;;;6.22;2.63;;;27.40;84.40;;;;;;5137673;27;20126;-70
2023/08/21 08:52:07;;;;;;;8.02;2.78;;;27.20;88.70;;;;;;5156255;27;20042;-71
2023/08/21 08:54:35;;;;;;;6.50;2.95;;;27.00;90.20;;;;;;5137010;27;20054;-69
2023/08/21 08:57:01;;;;;;;8.52;2.75;;;26.90;91.30;;;;;;5155671;27;20125;-69
2023/08/21 08:59:31;;;;;;;11.15;3.95;;;26.90;92.30;;;;;;5120362;27;20454;-69
2023/08/21 09:01:57;;;;;;;9.02;2.55;;;26.80;91.80;;;;;;5155722;27;20042;-69
2023/08/21 09:04:22;;;;;;;7.63;2.47;;;26.60;92.80;;;;;;5137400;27;20104;-72
2023/08/21 09:06:48;;;;;;;6.88;2.25;;;26.60;94.20;;;;;;5137574;27;20410;-77
2023/08/21 09:09:14;;;;;;;9.20;2.80;;;26.40;94.50;;;;;;5137508;27;20046;-78
2023/08/21 09:11:44;;;;;;;7.75;2.40;;;26.40;94.60;;;;;;5137650;27;20420;-68
2023/08/21 09:14:10;;;;;;;8.88;3.15;;;26.40;94.90;;;;;;5137660;27;20051;-71
2023/08/21 09:16:36;;;;;;;10.98;2.92;;;26.40;95.20;;;;;;5155413;27;20042;-72
2023/08/21 09:19:02;;;;;;;9.43;3.33;;;26.30;95.20;;;;;;5155816;27;20050;-72
2023/08/21 09:21:28;;;;;;;9.38;2.45;;;26.30;95.70;;;;;;5137014;27;20099;-73
2023/08/21 09:24:04;;;;;;;10.68;2.85;;;26.20;96.70;;;;;;5137365;27;20471;-71
2023/08/21 09:26:34;;;;;;;8.52;3.08;;;26.10;97.40;;;;;;5136995;27;20508;-71
2023/08/21 09:29:04;;;;;;;8.73;2.95;;;26.10;97.10;;;;;;5155534;27;20052;-72
2023/08/21 09:31:32;;;;;;;10.07;2.78;;;26.10;96.50;;;;;;5155320;27;20043;-72
2023/08/21 09:34:00;;;;;;;8.82;2.53;;;26.00;96.60;;;;;;5136873;27;20050;-74
2023/08/21 09:36:27;;;;;;;9.25;2.55;;;25.90;96.90;;;;;;5155024;27;20053;-74
2023/08/21 09:38:52;;;;;;;8.73;2.73;;;25.80;96.40;;;;;;5155333;27;20049;-74
2023/08/21 09:41:23;;;;;;;13.13;3.47;;;25.70;96.50;;;;;;5155022;27;20050;-80
2023/08/21 09:43:50;;;;;;;10.17;2.40;;;25.60;97.30;;;;;;5137079;27;20047;-75
2023/08/21 09:46:17;;;;;;;9.17;2.40;;;25.60;97.80;;;;;;5155236;27;20129;-76
2023/08/21 09:48:47;;;;;;;7.13;2.27;;;25.60;97.90;;;;;;5119924;27;20050;-74
2023/08/21 09:51:13;;;;;;;7.77;2.10;;;25.50;98.70;;;;;;5155376;27;20106;-75
2023/08/21 09:53:40;;;;;;;7.03;1.90;;;25.50;99.10;;;;;;5136136;27;20432;-75
2023/08/21 09:56:06;;;;;;;8.40;1.97;;;25.50;99.90;;;;;;5155345;27;20387;-75
2023/08/21 09:58:32;;;;;;;8.67;2.37;;;25.50;99.70;;;;;;5154786;27;20038;-75
2023/08/21 10:00:59;;;;;;;8.57;2.47;;;25.50;99.60;;;;;;5154956;27;20050;-74
2023/08/21 10:03:25;;;;;;;6.80;1.90;;;25.50;99.80;;;;;;5154732;27;20059;-75
2023/08/21 10:05:53;;;;;;;9.67;2.10;;;25.50;99.90;;;;;;5155084;27;20077;-76
2023/08/21 10:08:24;;;;;;;6.90;2.50;;;25.60;99.90;;;;;;5136566;27;20054;-76
2023/08/21 10:10:50;;;;;;;6.43;1.90;;;25.60;99.50;;;;;;5136796;27;20042;-76
2023/08/21 10:13:16;;;;;;;6.67;2.10;;;25.60;98.50;;;;;;5154521;27;20091;-76
2023/08/21 10:15:42;;;;;;;5.43;1.70;;;25.50;97.90;;;;;;5154543;27;20050;-74
2023/08/21 10:18:25;;;;;;;5.53;1.67;;;25.50;97.20;;;;;;5136523;27;20095;-75
2023/08/21 10:20:52;;;;;;;8.40;2.23;;;25.40;96.60;;;;;;5155030;27;20047;-77
2023/08/21 10:23:29;;;;;;;5.50;1.77;;;25.40;96.80;;;;;;5154817;27;20053;-76
2023/08/21 10:25:59;;;;;;;8.87;1.90;;;25.40;96.70;;;;;;5113387;27;20055;-74
2023/08/21 10:28:25;;;;;;;6.77;1.90;;;25.40;95.20;;;;;;5153603;27;20451;-73
2023/08/21 10:30:51;;;;;;;7.00;2.27;;;25.40;96.30;;;;;;5154244;27;20117;-73
2023/08/21 10:33:19;;;;;;;6.83;2.03;;;25.40;97.00;;;;;;5136337;27;20130;-75
2023/08/21 10:35:45;;;;;;;9.03;2.43;;;25.40;96.60;;;;;;5136161;27;20058;-76
2023/08/21 10:38:16;;;;;;;6.20;2.07;;;25.30;96.50;;;;;;5154814;27;20047;-78
2023/08/21 10:41:07;;;;;;;5.73;1.77;;;25.30;97.10;;;;;;5154232;27;20039;-79
2023/08/21 10:43:41;;;;;;;10.07;2.73;;;25.20;97.60;;;;;;5135866;27;20045;-80
2023/08/21 10:46:08;;;;;;;7.93;1.93;;;25.20;97.30;;;;;;5136560;27;20463;-78
2023/08/21 10:48:34;;;;;;;7.93;1.93;;;25.20;96.90;;;;;;5153842;27;20517;-78
2023/08/21 10:51:03;;;;;;;9.13;2.10;;;25.30;97.40;;;;;;5154461;27;20468;-80
2023/08/21 10:53:30;;;;;;;5.43;1.93;;;25.30;97.00;;;;;;5134451;27;20047;-77
2023/08/21 10:55:57;;;;;;;7.83;2.17;;;25.20;97.30;;;;;;5135455;27;20054;-78
2023/08/21 10:58:22;;;;;;;9.43;2.20;;;25.30;97.30;;;;;;5153844;27;20050;-78
2023/08/21 11:00:58;;;;;;;5.77;1.87;;;25.20;95.80;;;;;;5153661;27;20046;-79
2023/08/21 11:03:24;;;;;;;12.03;2.60;;;25.20;96.40;;;;;;5135628;27;20046;-78
2023/08/21 11:06:09;;;;;;;8.67;2.30;;;25.20;97.00;;;;;;5135239;27;20096;-78
2023/08/21 11:08:36;;;;;;;7.53;2.43;;;25.10;97.10;;;;;;5135917;27;20444;-77
2023/08/21 11:11:05;;;;;;;6.73;1.90;;;25.10;97.70;;;;;;5136277;27;20130;-78
2023/08/21 11:13:31;;;;;;;8.37;2.20;;;25.10;97.50;;;;;;5153888;27;20035;-79
2023/08/21 11:16:03;;;;;;;6.07;1.83;;;25.10;97.50;;;;;;5118775;27;20447;-78
2023/08/21 11:18:37;;;;;;;6.60;2.07;;;25.10;97.70;;;;;;5136565;27;20478;-77
2023/08/21 11:21:08;;;;;;;;;;;25.10;97.50;;;;;;5158246;27;20047;-77
2023/08/21 11:23:39;;;;;;;7.37;2.00;;;25.10;96.90;;;;;;5158304;27;20339;-76
2023/08/21 11:26:05;;;;;;;6.77;1.50;;;25.20;95.00;;;;;;5158193;27;20124;-74
2023/08/21 11:28:31;;;;;;;6.57;1.93;;;25.10;94.30;;;;;;5157595;27;20046;-74
2023/08/21 11:30:58;;;;;;;6.27;1.80;;;25.10;94.50;;;;;;5157593;27;20031;-75
2023/08/21 11:33:26;;;;;;;6.57;2.00;;;25.10;94.80;;;;;;5138150;27;20039;-70
2023/08/21 11:35:53;;;;;;;6.33;1.57;;;25.10;94.00;;;;;;5156943;27;20047;-75
2023/08/21 11:38:20;;;;;;;5.60;1.73;;;25.20;94.60;;;;;;5156871;27;20456;-73
2023/08/21 11:40:56;;;;;;;5.40;1.53;;;25.20;94.70;;;;;;5156888;27;20042;-76
2023/08/21 11:43:34;;;;;;;5.73;1.77;;;25.30;95.50;;;;;;5139532;27;20368;-73
2023/08/21 11:46:10;;;;;;;5.93;1.77;;;25.40;94.80;;;;;;5157684;27;20099;-74
2023/08/21 11:48:40;;;;;;;6.77;1.50;;;25.40;94.50;;;;;;5157413;27;20046;-73
2023/08/21 11:51:07;;;;;;;8.57;1.93;;;25.40;94.30;;;;;;5157622;27;20091;-76
2023/08/21 11:53:34;;;;;;;5.13;2.07;;;25.40;94.00;;;;;;5156667;27;20138;-77
2023/08/21 11:56:00;;;;;;;5.83;1.63;;;25.40;93.10;;;;;;5137649;27;20047;-77
2023/08/21 11:58:29;;;;;;;4.07;1.40;;;25.30;92.80;;;;;;5156433;27;20095;-77
2023/08/21 12:01:03;;;;;;;6.23;1.90;;;25.20;92.70;;;;;;5156684;27;20043;-77
2023/08/21 12:03:29;;;;;;;6.40;2.10;;;25.20;92.90;;;;;;5156700;27;20095;-77
2023/08/21 12:05:55;;;;;;;7.40;2.17;;;25.20;92.20;;;;;;5157151;27;20172;-77
2023/08/21 12:08:21;;;;;;;6.13;1.77;;;25.10;91.80;;;;;;5138871;27;20494;-76
2023/08/21 12:10:52;;;;;;;5.30;1.57;;;25.20;91.40;;;;;;5138377;27;20053;-77
2023/08/21 12:13:17;;;;;;;4.60;1.33;;;25.10;90.50;;;;;;5157265;27;20042;-77
2023/08/21 12:15:43;;;;;;;5.10;1.60;;;25.20;91.20;;;;;;5138831;27;20054;-77
2023/08/21 12:18:09;;;;;;;6.70;1.43;;;25.10;91.10;;;;;;5157104;27;20047;-77
2023/08/21 12:20:35;;;;;;;4.20;1.30;;;25.10;90.20;;;;;;5156971;27;20039;-77
2023/08/21 12:23:00;;;;;;;5.20;1.40;;;25.10;90.70;;;;;;5138774;27;20061;-77
2023/08/21 12:25:26;;;;;;;6.90;1.63;;;25.10;91.10;;;;;;5157087;27;20406;-77
2023/08/21 12:27:52;;;;;;;6.07;1.80;;;25.10;91.30;;;;;;5157064;27;20049;-77
2023/08/21 12:30:17;;;;;;;9.70;2.03;;;25.10;91.20;;;;;;5137247;27;20479;-77
2023/08/21 12:32:43;;;;;;;7.43;1.80;;;25.10;91.70;;;;;;5156662;27;20039;-77
2023/08/21 12:35:11;;;;;;;5.93;1.60;;;25.20;92.50;;;;;;5156738;27;20054;-77
2023/08/21 12:37:37;;;;;;;6.90;1.67;;;25.20;92.70;;;;;;5138414;27;20054;-77
2023/08/21 12:40:03;;;;;;;6.40;1.80;;;25.30;92.60;;;;;;5157003;27;20095;-76
2023/08/21 12:42:29;;;;;;;7.70;1.50;;;25.30;91.70;;;;;;5156550;27;20045;-76